Time;durP1;ratioP1;P1;durP2;ratioP2;P2;SDS_P1;SDS_P2;PMS_P1;PMS_P2;Temp;Humidity;BMP_temperature;BMP_pressure;BME280_temperature;BME280_humidity;BME280_pressure;Samples;Min_cycle;Max_cycle;Signal;HPM_P1;HPM_P2
2021/01/21 00:03:53;;;;;;;4.33;1.73;;;;;;;;;;10159337;28;20096;-64
2021/01/21 00:08:50;;;;;;;5.80;1.47;;;;;;;;;;10160155;28;20043;-64
2021/01/21 00:13:48;;;;;;;2.20;1.60;;;;;;;;;;10159814;28;20043;-64
2021/01/21 00:18:45;;;;;;;1.27;1.07;;;;;;;;;;10175644;28;20039;-64
2021/01/21 00:23:43;;;;;;;4.00;1.57;;;;;;;;;;10166055;28;20039;-64
2021/01/21 00:28:40;;;;;;;3.40;1.60;;;;;;;;;;10160319;28;20518;-64
2021/01/21 00:33:37;;;;;;;6.07;1.23;;;;;;;;;;10165709;28;20033;-64
2021/01/21 00:38:35;;;;;;;3.50;1.73;;;;;;;;;;10165097;28;20038;-64
2021/01/21 00:43:32;;;;;;;0.80;0.80;;;;;;;;;;10152739;28;20093;-64
2021/01/21 00:48:30;;;;;;;2.00;1.50;;;;;;;;;;10177922;28;20035;-64
2021/01/21 00:53:27;;;;;;;1.13;0.90;;;;;;;;;;10152714;28;20023;-64
2021/01/21 00:58:25;;;;;;;2.93;1.33;;;;;;;;;;10158857;28;20114;-63
2021/01/21 01:03:22;;;;;;;2.77;1.20;;;;;;;;;;10168056;28;20035;-64
2021/01/21 01:08:22;;;;;;;1.35;1.20;;;;;;;;;;10170469;28;20039;-64
2021/01/21 01:13:20;;;;;;;2.43;1.50;;;;;;;;;;10184286;28;20031;-64
2021/01/21 01:18:18;;;;;;;1.48;1.35;;;;;;;;;;10162912;28;20294;-64
2021/01/21 01:23:16;;;;;;;3.50;1.35;;;;;;;;;;10161364;28;20322;-64
2021/01/21 01:28:14;;;;;;;1.47;1.10;;;;;;;;;;10162791;28;20049;-64
2021/01/21 01:33:11;;;;;;;2.53;1.60;;;;;;;;;;10154561;28;20034;-64
2021/01/21 01:38:13;;;;;;;6.90;1.00;;;;;;;;;;10173024;28;20506;-64
2021/01/21 01:43:11;;;;;;;4.20;1.20;;;;;;;;;;10154949;28;20438;-64
2021/01/21 01:48:09;;;;;;;4.67;1.20;;;;;;;;;;10162304;28;20039;-64
2021/01/21 01:53:16;;;;;;;1.38;1.27;;;;;;;;;;10167336;28;20405;-64
2021/01/21 01:58:18;;;;;;;1.50;1.10;;;;;;;;;;10173640;28;20090;-64
2021/01/21 02:03:21;;;;;;;1.92;1.30;;;;;;;;;;10164340;28;20119;-64
2021/01/21 02:08:37;;;;;;;2.45;1.05;;;;;;;;;;10168424;28;20126;-64
2021/01/21 02:13:54;;;;;;;1.15;1.00;;;;;;;;;;10159706;28;20041;-64
2021/01/21 02:19:07;;;;;;;3.35;1.13;;;;;;;;;;10188492;28;20406;-64
2021/01/21 02:24:31;;;;;;;1.38;1.20;;;;;;;;;;10165536;28;20117;-64
2021/01/21 02:29:36;;;;;;;2.85;1.40;;;;;;;;;;10173179;28;20535;-64
2021/01/21 02:34:53;;;;;;;3.63;1.30;;;;;;;;;;10169978;28;20419;-64
2021/01/21 02:39:58;;;;;;;7.18;1.60;;;;;;;;;;10156062;28;20058;-64
2021/01/21 02:44:56;;;;;;;3.78;1.27;;;;;;;;;;10159775;28;20053;-64
2021/01/21 02:49:58;;;;;;;9.18;2.08;;;;;;;;;;10177148;28;20059;-64
2021/01/21 02:55:02;;;;;;;2.07;1.07;;;;;;;;;;10185464;28;20616;-64
2021/01/21 03:00:05;;;;;;;7.55;1.50;;;;;;;;;;10163014;28;20039;-64
2021/01/21 03:05:04;;;;;;;1.60;1.20;;;;;;;;;;10157604;28;20460;-64
2021/01/21 03:10:03;;;;;;;3.45;1.38;;;;;;;;;;10166629;28;20041;-64
2021/01/21 03:15:05;;;;;;;3.05;1.25;;;;;;;;;;10165229;28;20034;-64
2021/01/21 03:20:09;;;;;;;4.78;1.27;;;;;;;;;;10154961;28;20046;-64
2021/01/21 03:25:07;;;;;;;5.80;1.30;;;;;;;;;;10150804;28;20577;-64
2021/01/21 03:30:11;;;;;;;3.30;2.10;;;;;;;;;;10152427;28;20035;-64
2021/01/21 03:35:09;;;;;;;1.52;1.15;;;;;;;;;;10162979;28;20406;-64
2021/01/21 03:40:07;;;;;;;2.55;1.30;;;;;;;;;;10165618;28;20503;-64
2021/01/21 03:45:13;;;;;;;4.00;1.02;;;;;;;;;;10171224;28;20035;-64
2021/01/21 03:50:11;;;;;;;1.70;1.10;;;;;;;;;;10181820;28;20031;-64
2021/01/21 03:55:11;;;;;;;2.75;1.38;;;;;;;;;;10172256;28;20049;-65
2021/01/21 04:00:10;;;;;;;1.63;0.93;;;;;;;;;;10156237;28;20126;-64
2021/01/21 04:05:12;;;;;;;3.28;0.85;;;;;;;;;;10159421;28;20035;-64
2021/01/21 04:10:11;;;;;;;1.80;0.97;;;;;;;;;;10169344;28;20031;-63
2021/01/21 04:15:34;;;;;;;3.05;1.35;;;;;;;;;;10180391;28;20522;-62
2021/01/21 04:20:33;;;;;;;2.72;1.55;;;;;;;;;;10208849;28;20126;-62
2021/01/21 04:25:31;;;;;;;2.30;1.17;;;;;;;;;;10156581;28;20122;-63
2021/01/21 04:30:35;;;;;;;1.88;1.13;;;;;;;;;;10141045;28;20043;-63
2021/01/21 04:35:33;;;;;;;1.63;1.37;;;;;;;;;;10140972;28;20047;-64
2021/01/21 04:40:31;;;;;;;6.20;1.53;;;;;;;;;;10146463;28;20413;-64
2021/01/21 04:46:00;;;;;;;1.48;1.13;;;;;;;;;;10148723;28;20051;-64
2021/01/21 04:50:59;;;;;;;6.77;1.63;;;;;;;;;;10146681;28;20051;-62
2021/01/21 04:56:06;;;;;;;3.92;1.23;;;;;;;;;;10147513;28;20034;-63
2021/01/21 05:01:26;;;;;;;2.08;0.90;;;;;;;;;;10149719;28;20036;-64
2021/01/21 05:06:25;;;;;;;6.22;1.10;;;;;;;;;;10162636;28;20561;-62
2021/01/21 05:11:29;;;;;;;1.40;0.80;;;;;;;;;;10162608;28;20042;-62
2021/01/21 05:16:53;;;;;;;2.05;0.93;;;;;;;;;;10180078;23;20058;-63
2021/01/21 05:22:11;;;;;;;2.28;1.25;;;;;;;;;;10229764;28;20394;-62
2021/01/21 05:27:25;;;;;;;2.60;1.15;;;;;;;;;;10239738;28;20399;-63
2021/01/21 05:32:36;;;;;;;2.65;0.82;;;;;;;;;;10225122;28;20026;-63
2021/01/21 05:38:03;;;;;;;1.33;0.82;;;;;;;;;;10250938;28;20029;-62
2021/01/21 05:43:23;;;;;;;1.30;0.88;;;;;;;;;;10194919;28;20038;-62
2021/01/21 05:48:33;;;;;;;3.67;1.20;;;;;;;;;;10208686;28;20315;-63
2021/01/21 05:53:32;;;;;;;3.42;1.23;;;;;;;;;;10212758;28;20034;-63
2021/01/21 05:58:34;;;;;;;1.58;1.25;;;;;;;;;;10209481;28;20026;-63
2021/01/21 06:03:31;;;;;;;;;;;;;;;;;;10200994;28;20026;-63
2021/01/21 06:08:38;;;;;;;3.55;1.48;;;;;;;;;;10207225;28;19917;-63
2021/01/21 06:13:40;;;;;;;5.13;2.03;;;;;;;;;;10191270;28;20542;-63
2021/01/21 06:18:38;;;;;;;1.70;1.10;;;;;;;;;;10184582;28;21269;-63
2021/01/21 06:24:05;;;;;;;3.65;1.10;;;;;;;;;;10184159;28;20120;-63
2021/01/21 06:29:26;;;;;;;4.15;1.48;;;;;;;;;;10214172;28;20038;-62
2021/01/21 06:34:30;;;;;;;2.40;1.08;;;;;;;;;;10217458;28;20034;-63
2021/01/21 06:39:37;;;;;;;4.65;1.33;;;;;;;;;;10223053;28;21132;-62
2021/01/21 06:44:35;;;;;;;2.33;0.90;;;;;;;;;;10231774;28;20042;-63
2021/01/21 06:49:32;;;;;;;1.50;1.00;;;;;;;;;;10217692;28;20510;-62
2021/01/21 06:54:30;;;;;;;3.27;0.80;;;;;;;;;;10208478;28;20293;-63
2021/01/21 06:59:48;;;;;;;1.88;0.77;;;;;;;;;;10193193;28;20101;-63
2021/01/21 07:05:05;;;;;;;3.15;0.75;;;;;;;;;;10185203;28;20120;-63
2021/01/21 07:10:03;;;;;;;2.25;0.80;;;;;;;;;;10211894;22;20409;-63
2021/01/21 07:15:02;;;;;;;5.70;0.82;;;;;;;;;;10229383;28;20060;-63
2021/01/21 07:20:02;;;;;;;1.77;0.90;;;;;;;;;;10207476;28;20073;-64
2021/01/21 07:25:00;;;;;;;2.75;0.73;;;;;;;;;;10233562;28;20085;-63
2021/01/21 07:29:57;;;;;;;;;;;;;;;;;;10218343;28;20453;-63
2021/01/21 07:34:55;;;;;;;7.03;0.98;;;;;;;;;;10215500;28;19936;-64
2021/01/21 07:39:55;;;;;;;2.33;0.60;;;;;;;;;;10207954;28;20445;-63
2021/01/21 07:44:54;;;;;;;0.55;0.52;;;;;;;;;;10216835;28;20043;-62
2021/01/21 07:49:51;;;;;;;1.13;0.47;;;;;;;;;;10220519;28;20462;-64
2021/01/21 07:54:49;;;;;;;0.77;0.50;;;;;;;;;;10226987;28;20475;-64
2021/01/21 07:59:58;;;;;;;1.03;0.50;;;;;;;;;;10217992;28;20038;-63
2021/01/21 08:04:59;;;;;;;3.80;0.98;;;;;;;;;;10215403;28;20026;-62
2021/01/21 08:10:06;;;;;;;1.25;0.60;;;;;;;;;;10214797;28;20045;-64
2021/01/21 08:15:04;;;;;;;6.47;0.88;;;;;;;;;;10222680;28;20497;-64
2021/01/21 08:20:02;;;;;;;2.08;0.65;;;;;;;;;;10226401;28;20409;-63
2021/01/21 08:25:00;;;;;;;2.65;0.65;;;;;;;;;;10221333;28;20026;-64
2021/01/21 08:30:12;;;;;;;5.82;1.17;;;;;;;;;;10223784;28;20038;-63
2021/01/21 08:35:16;;;;;;;3.85;0.55;;;;;;;;;;10215806;28;20054;-64
2021/01/21 08:40:14;;;;;;;4.43;1.05;;;;;;;;;;10222356;28;20050;-64
2021/01/21 08:45:12;;;;;;;2.92;0.60;;;;;;;;;;10220987;28;20037;-64
2021/01/21 08:50:10;;;;;;;0.80;0.60;;;;;;;;;;10225676;28;20057;-63
2021/01/21 08:55:07;;;;;;;2.20;0.70;;;;;;;;;;10202295;28;20112;-64
2021/01/21 09:00:11;;;;;;;1.50;0.73;;;;;;;;;;10218325;28;20134;-65
2021/01/21 09:05:09;;;;;;;6.07;1.05;;;;;;;;;;10211853;28;20055;-64
2021/01/21 09:10:10;;;;;;;3.83;0.77;;;;;;;;;;10220170;28;20034;-63
2021/01/21 09:15:08;;;;;;;2.75;0.50;;;;;;;;;;10218819;28;20274;-64
2021/01/21 09:20:17;;;;;;;5.37;0.80;;;;;;;;;;10213803;28;20072;-64
2021/01/21 09:25:22;;;;;;;7.68;1.48;;;;;;;;;;10209573;28;20041;-62
2021/01/21 09:30:20;;;;;;;8.45;0.77;;;;;;;;;;10207587;28;20038;-61
2021/01/21 09:35:18;;;;;;;5.32;0.75;;;;;;;;;;10209126;28;20117;-65
2021/01/21 09:40:17;;;;;;;2.90;0.80;;;;;;;;;;10210327;28;20046;-62
2021/01/21 09:45:15;;;;;;;2.42;0.85;;;;;;;;;;10210226;28;20030;-65
2021/01/21 09:50:12;;;;;;;2.17;0.90;;;;;;;;;;10219177;28;20057;-64
2021/01/21 09:55:10;;;;;;;5.10;0.83;;;;;;;;;;10215855;28;20334;-65
2021/01/21 10:00:09;;;;;;;3.65;0.75;;;;;;;;;;10214189;28;20501;-64
2021/01/21 10:05:09;;;;;;;2.90;0.80;;;;;;;;;;10212087;28;20386;-62
2021/01/21 10:10:07;;;;;;;2.63;0.73;;;;;;;;;;10218279;28;20351;-64
2021/01/21 10:15:05;;;;;;;4.13;1.27;;;;;;;;;;10216867;28;20038;-65
2021/01/21 10:20:03;;;;;;;6.27;0.97;;;;;;;;;;10221518;28;20030;-65
2021/01/21 10:25:00;;;;;;;3.78;0.98;;;;;;;;;;10205055;28;20385;-64
2021/01/21 10:29:58;;;;;;;1.13;0.70;;;;;;;;;;10210772;28;20117;-64
2021/01/21 10:34:55;;;;;;;4.63;1.03;;;;;;;;;;10222013;28;20465;-65
2021/01/21 10:39:53;;;;;;;3.87;0.80;;;;;;;;;;10216890;28;20034;-63
2021/01/21 10:44:50;;;;;;;1.57;0.50;;;;;;;;;;10209663;28;20430;-64
2021/01/21 10:49:48;;;;;;;2.45;0.70;;;;;;;;;;10218766;28;20077;-65
2021/01/21 10:54:46;;;;;;;2.80;0.93;;;;;;;;;;10221980;28;20458;-64
2021/01/21 10:59:43;;;;;;;1.30;0.53;;;;;;;;;;10228337;28;20038;-66
2021/01/21 11:04:40;;;;;;;1.40;0.50;;;;;;;;;;10221871;28;20532;-65
2021/01/21 11:09:39;;;;;;;2.30;0.60;;;;;;;;;;10227680;28;20037;-65
2021/01/21 11:14:37;;;;;;;2.53;0.60;;;;;;;;;;10212215;28;20074;-64
2021/01/21 11:19:34;;;;;;;3.33;0.52;;;;;;;;;;10214648;28;20296;-63
2021/01/21 11:24:32;;;;;;;1.13;0.60;;;;;;;;;;10232207;28;20066;-64
2021/01/21 11:29:29;;;;;;;2.53;0.43;;;;;;;;;;10213100;28;20037;-64
2021/01/21 11:34:26;;;;;;;0.73;0.30;;;;;;;;;;10208799;28;20503;-65
2021/01/21 11:39:24;;;;;;;0.30;0.30;;;;;;;;;;10213058;28;20097;-64
2021/01/21 11:44:21;;;;;;;2.17;0.80;;;;;;;;;;10224385;28;20054;-65
2021/01/21 11:49:19;;;;;;;1.60;0.50;;;;;;;;;;10220441;28;20452;-65
2021/01/21 11:54:16;;;;;;;2.30;0.90;;;;;;;;;;10225271;28;20053;-64
2021/01/21 11:59:14;;;;;;;0.80;0.80;;;;;;;;;;10225934;28;20552;-65
2021/01/21 12:04:11;;;;;;;2.50;0.93;;;;;;;;;;10227199;28;20049;-64
2021/01/21 12:09:08;;;;;;;5.00;0.93;;;;;;;;;;10225360;28;20087;-65
2021/01/21 12:14:07;;;;;;;3.40;1.13;;;;;;;;;;10228150;28;20155;-65
2021/01/21 12:19:05;;;;;;;2.97;0.80;;;;;;;;;;10220471;28;20035;-66
2021/01/21 12:24:02;;;;;;;2.13;0.70;;;;;;;;;;10218999;28;20497;-65
2021/01/21 12:29:00;;;;;;;2.47;0.40;;;;;;;;;;10231836;28;20050;-65
2021/01/21 12:33:57;;;;;;;3.17;1.20;;;;;;;;;;10233058;28;20604;-65
2021/01/21 12:38:55;;;;;;;2.53;0.70;;;;;;;;;;10237766;28;20046;-64
2021/01/21 12:43:53;;;;;;;2.37;0.87;;;;;;;;;;10228554;28;20042;-66
2021/01/21 12:48:50;;;;;;;1.30;0.50;;;;;;;;;;10225300;28;20042;-65
2021/01/21 12:53:48;;;;;;;3.03;0.70;;;;;;;;;;10234506;28;20489;-64
2021/01/21 12:58:46;;;;;;;3.30;0.82;;;;;;;;;;10226172;28;20061;-63
2021/01/21 13:03:44;;;;;;;9.65;1.00;;;;;;;;;;10222469;28;20070;-62
2021/01/21 13:08:41;;;;;;;3.70;0.90;;;;;;;;;;10229227;28;20375;-65
2021/01/21 13:13:39;;;;;;;7.33;1.90;;;;;;;;;;10231785;28;20060;-64
2021/01/21 13:18:37;;;;;;;8.03;1.20;;;;;;;;;;10220736;28;20113;-66
2021/01/21 13:23:34;;;;;;;5.90;0.70;;;;;;;;;;10196416;28;20038;-65
2021/01/21 13:28:31;;;;;;;5.33;0.93;;;;;;;;;;10213694;28;20044;-64
2021/01/21 13:33:29;;;;;;;6.03;1.20;;;;;;;;;;10215146;28;20038;-65
2021/01/21 13:38:29;;;;;;;9.13;1.60;;;;;;;;;;10228214;28;20125;-65
2021/01/21 13:43:28;;;;;;;2.10;0.75;;;;;;;;;;10245347;28;20034;-65
2021/01/21 13:48:26;;;;;;;5.53;0.80;;;;;;;;;;10239230;28;20034;-66
2021/01/21 13:53:23;;;;;;;4.50;0.63;;;;;;;;;;10238238;28;20026;-64
2021/01/21 13:58:21;;;;;;;3.17;0.83;;;;;;;;;;10239422;28;20397;-64
2021/01/21 14:03:18;;;;;;;1.33;0.50;;;;;;;;;;10247534;28;20504;-65
2021/01/21 14:08:16;;;;;;;1.87;0.50;;;;;;;;;;10227277;28;20045;-65
2021/01/21 14:13:13;;;;;;;6.37;0.93;;;;;;;;;;10223375;28;20096;-62
2021/01/21 14:18:11;;;;;;;8.67;1.40;;;;;;;;;;10231420;28;20049;-63
2021/01/21 14:23:11;;;;;;;5.00;1.10;;;;;;;;;;10208101;28;20078;-62
2021/01/21 14:28:09;;;;;;;3.10;0.90;;;;;;;;;;10227749;28;20034;-64
2021/01/21 14:33:07;;;;;;;1.63;0.65;;;;;;;;;;10236445;28;20555;-63
2021/01/21 14:38:05;;;;;;;3.90;1.17;;;;;;;;;;10224483;28;20456;-64
2021/01/21 14:43:03;;;;;;;;;;;;;;;;;;10224190;28;20413;-64
2021/01/21 14:48:01;;;;;;;3.17;1.17;;;;;;;;;;10247063;28;19913;-65
2021/01/21 14:52:58;;;;;;;2.90;0.60;;;;;;;;;;10248494;28;20338;-64
2021/01/21 14:57:57;;;;;;;2.40;0.70;;;;;;;;;;10233235;28;20037;-65
2021/01/21 15:02:55;;;;;;;4.32;0.90;;;;;;;;;;10227665;28;20074;-64
2021/01/21 15:07:54;;;;;;;4.57;1.33;;;;;;;;;;10231429;28;20045;-65
2021/01/21 15:12:51;;;;;;;1.05;0.82;;;;;;;;;;10218730;28;20038;-64
2021/01/21 15:17:48;;;;;;;9.20;1.47;;;;;;;;;;10224977;28;20045;-65
2021/01/21 15:22:46;;;;;;;2.17;0.97;;;;;;;;;;10242541;28;20532;-64
2021/01/21 15:27:44;;;;;;;5.60;0.93;;;;;;;;;;10224824;28;20068;-64
2021/01/21 15:32:41;;;;;;;2.67;0.97;;;;;;;;;;10231050;28;20494;-64
2021/01/21 15:37:39;;;;;;;2.07;0.57;;;;;;;;;;10203292;28;20489;-65
2021/01/21 15:42:36;;;;;;;3.80;1.40;;;;;;;;;;10225695;28;20386;-65
2021/01/21 15:47:33;;;;;;;2.40;0.73;;;;;;;;;;10237977;28;20125;-65
2021/01/21 15:52:31;;;;;;;3.50;0.90;;;;;;;;;;10230099;28;20505;-63
2021/01/21 15:57:28;;;;;;;4.63;0.70;;;;;;;;;;10212522;28;20560;-65
2021/01/21 16:02:27;;;;;;;0.90;0.70;;;;;;;;;;10238785;28;20034;-63
2021/01/21 16:07:24;;;;;;;1.35;1.10;;;;;;;;;;10198285;28;20514;-64
2021/01/21 16:12:22;;;;;;;5.40;1.93;;;;;;;;;;10240335;28;20136;-64
2021/01/21 16:17:20;;;;;;;6.27;1.83;;;;;;;;;;10222655;28;20034;-65
2021/01/21 16:22:17;;;;;;;4.67;1.37;;;;;;;;;;10242152;28;20042;-65
2021/01/21 16:27:15;;;;;;;4.07;1.00;;;;;;;;;;10231946;28;20095;-64
2021/01/21 16:32:12;;;;;;;4.33;0.87;;;;;;;;;;10244086;28;20056;-65
2021/01/21 16:37:10;;;;;;;5.07;0.97;;;;;;;;;;10241483;28;20053;-63
2021/01/21 16:42:07;;;;;;;1.70;0.50;;;;;;;;;;10240016;28;20039;-65
2021/01/21 16:47:05;;;;;;;3.80;1.10;;;;;;;;;;10227797;28;20042;-65
2021/01/21 16:52:02;;;;;;;2.20;0.67;;;;;;;;;;10228926;28;20093;-63
2021/01/21 16:57:00;;;;;;;4.97;1.20;;;;;;;;;;10238785;28;20720;-64
2021/01/21 17:01:57;;;;;;;3.10;0.80;;;;;;;;;;10233781;28;20045;-64
2021/01/21 17:06:54;;;;;;;1.57;0.87;;;;;;;;;;10228816;28;20038;-65
2021/01/21 17:11:52;;;;;;;1.20;0.50;;;;;;;;;;10219586;28;20405;-64
2021/01/21 17:16:49;;;;;;;1.27;0.70;;;;;;;;;;10212480;28;20080;-65
2021/01/21 17:21:47;;;;;;;6.33;0.80;;;;;;;;;;10204773;28;20035;-65
2021/01/21 17:26:45;;;;;;;4.17;1.17;;;;;;;;;;10187348;28;20289;-65
2021/01/21 17:31:42;;;;;;;2.70;1.20;;;;;;;;;;10198732;28;20357;-65
2021/01/21 17:36:40;;;;;;;2.53;0.83;;;;;;;;;;10204836;28;20041;-66
2021/01/21 17:41:38;;;;;;;1.58;0.80;;;;;;;;;;10200381;28;20058;-65
2021/01/21 17:46:35;;;;;;;8.53;1.20;;;;;;;;;;10209588;28;20084;-64
2021/01/21 17:51:33;;;;;;;2.50;0.90;;;;;;;;;;10198130;28;20412;-65
2021/01/21 17:56:30;;;;;;;3.47;0.57;;;;;;;;;;10204865;28;20391;-64
2021/01/21 18:01:27;;;;;;;5.93;0.70;;;;;;;;;;10210340;28;20034;-66
2021/01/21 18:06:27;;;;;;;1.27;0.63;;;;;;;;;;10201938;28;20061;-65
2021/01/21 18:11:24;;;;;;;1.88;0.60;;;;;;;;;;10195086;28;20092;-65
2021/01/21 18:16:21;;;;;;;6.70;1.73;;;;;;;;;;10201312;28;20038;-65
2021/01/21 18:21:19;;;;;;;0.77;0.60;;;;;;;;;;10198633;28;20081;-65
2021/01/21 18:26:16;;;;;;;2.33;0.60;;;;;;;;;;10204032;28;20034;-65
2021/01/21 18:31:14;;;;;;;2.40;1.10;;;;;;;;;;10204200;28;20045;-64
2021/01/21 18:36:11;;;;;;;3.23;1.13;;;;;;;;;;10199584;28;20037;-65
2021/01/21 18:41:08;;;;;;;0.47;0.40;;;;;;;;;;10190043;28;20049;-64
2021/01/21 18:46:06;;;;;;;1.30;0.97;;;;;;;;;;10194020;28;20393;-64
2021/01/21 18:51:04;;;;;;;3.63;1.20;;;;;;;;;;10200675;28;20049;-65
2021/01/21 18:56:01;;;;;;;4.80;1.30;;;;;;;;;;10203808;28;20061;-65
2021/01/21 19:00:59;;;;;;;4.43;1.40;;;;;;;;;;10203969;28;20023;-64
2021/01/21 19:05:56;;;;;;;6.43;2.10;;;;;;;;;;10204410;28;20486;-65
2021/01/21 19:10:54;;;;;;;3.00;0.70;;;;;;;;;;10183127;22;20528;-65
2021/01/21 19:15:51;;;;;;;3.47;1.37;;;;;;;;;;10158593;23;20053;-66
2021/01/21 19:20:49;;;;;;;1.37;0.80;;;;;;;;;;10173383;28;20039;-66
2021/01/21 19:25:46;;;;;;;1.97;0.83;;;;;;;;;;10181465;28;20043;-66
2021/01/21 19:30:43;;;;;;;4.40;1.47;;;;;;;;;;10171815;28;20540;-66
2021/01/21 19:35:41;;;;;;;2.83;1.30;;;;;;;;;;10162837;28;20126;-67
2021/01/21 19:40:38;;;;;;;4.77;1.00;;;;;;;;;;10153913;28;20489;-66
2021/01/21 19:45:36;;;;;;;2.70;1.00;;;;;;;;;;10160871;28;20057;-66
2021/01/21 19:50:33;;;;;;;4.60;1.77;;;;;;;;;;10173048;28;20572;-66
2021/01/21 19:55:31;;;;;;;2.53;1.60;;;;;;;;;;10150767;28;20145;-68
2021/01/21 20:00:28;;;;;;;9.50;2.50;;;;;;;;;;10133814;28;20121;-67
2021/01/21 20:05:26;;;;;;;2.73;1.43;;;;;;;;;;10150706;28;20449;-66
2021/01/21 20:10:23;;;;;;;3.67;1.37;;;;;;;;;;10175051;28;20053;-67
2021/01/21 20:15:20;;;;;;;5.87;1.63;;;;;;;;;;10169448;28;20505;-66
2021/01/21 20:20:18;;;;;;;2.80;1.13;;;;;;;;;;10168936;28;20405;-67
2021/01/21 20:25:17;;;;;;;4.80;1.47;;;;;;;;;;10179616;28;20043;-66
2021/01/21 20:30:14;;;;;;;;;;;;;;;;;;10171260;28;20041;-67
2021/01/21 20:35:11;;;;;;;1.13;0.80;;;;;;;;;;10160220;28;20281;-67
2021/01/21 20:40:10;;;;;;;6.27;1.23;;;;;;;;;;10173157;28;20296;-66
2021/01/21 20:45:08;;;;;;;4.10;1.48;;;;;;;;;;10160189;28;20041;-67
2021/01/21 20:50:07;;;;;;;4.88;1.55;;;;;;;;;;10172543;28;20051;-66
2021/01/21 20:55:05;;;;;;;4.70;1.20;;;;;;;;;;10168244;28;20035;-67
2021/01/21 21:00:09;;;;;;;10.95;1.60;;;;;;;;;;10163520;28;20035;-67
2021/01/21 21:05:07;;;;;;;5.25;1.35;;;;;;;;;;10158071;28;20835;-65
2021/01/21 21:10:06;;;;;;;2.30;1.23;;;;;;;;;;10152300;28;20134;-67
2021/01/21 21:15:14;;;;;;;6.72;1.08;;;;;;;;;;10170620;28;20062;-67
2021/01/21 21:20:12;;;;;;;5.18;1.35;;;;;;;;;;10168633;28;20101;-67
2021/01/21 21:25:10;;;;;;;4.47;1.45;;;;;;;;;;10162071;28;20035;-66
2021/01/21 21:30:07;;;;;;;;;;;;;;;;;;10162952;28;20049;-67
2021/01/21 21:35:05;;;;;;;5.20;1.95;;;;;;;;;;10166828;28;20372;-67
2021/01/21 21:40:03;;;;;;;3.80;1.45;;;;;;;;;;10166266;28;20039;-67
2021/01/21 21:45:01;;;;;;;3.35;1.65;;;;;;;;;;10164666;28;20421;-66
2021/01/21 21:49:59;;;;;;;9.77;1.57;;;;;;;;;;10157354;28;20049;-67
2021/01/21 21:54:56;;;;;;;3.78;1.63;;;;;;;;;;10168395;28;20054;-67
2021/01/21 21:59:54;;;;;;;6.57;1.60;;;;;;;;;;10171277;28;20054;-66
2021/01/21 22:04:51;;;;;;;6.47;1.77;;;;;;;;;;10169933;28;20034;-67
2021/01/21 22:09:48;;;;;;;7.87;2.70;;;;;;;;;;10172061;28;20519;-66
2021/01/21 22:14:46;;;;;;;5.53;2.30;;;;;;;;;;10170495;28;20043;-66
2021/01/21 22:19:43;;;;;;;8.63;1.63;;;;;;;;;;10164714;28;20457;-66
2021/01/21 22:24:40;;;;;;;5.47;1.40;;;;;;;;;;10178064;28;20045;-66
2021/01/21 22:29:38;;;;;;;4.43;1.47;;;;;;;;;;10158959;28;20078;-66
2021/01/21 22:34:35;;;;;;;4.20;2.20;;;;;;;;;;10139293;28;20862;-66
2021/01/21 22:39:33;;;;;;;4.70;1.77;;;;;;;;;;10164100;28;20121;-66
2021/01/21 22:44:31;;;;;;;6.60;1.80;;;;;;;;;;10156697;28;20074;-66
2021/01/21 22:49:28;;;;;;;5.28;2.08;;;;;;;;;;10156365;28;20042;-66
2021/01/21 22:54:26;;;;;;;3.30;1.60;;;;;;;;;;10146271;28;20035;-65
2021/01/21 22:59:23;;;;;;;3.67;1.73;;;;;;;;;;10152667;28;20035;-66
2021/01/21 23:04:21;;;;;;;5.53;1.20;;;;;;;;;;10136105;28;20086;-66
2021/01/21 23:09:18;;;;;;;2.43;0.90;;;;;;;;;;10150738;28;20038;-65
2021/01/21 23:14:15;;;;;;;5.63;1.47;;;;;;;;;;10170646;28;20254;-65
2021/01/21 23:19:13;;;;;;;8.30;2.00;;;;;;;;;;10136737;28;20517;-66
2021/01/21 23:24:10;;;;;;;2.97;1.20;;;;;;;;;;10165543;28;20035;-66
2021/01/21 23:29:08;;;;;;;5.50;1.63;;;;;;;;;;10152044;28;20047;-66
2021/01/21 23:34:05;;;;;;;6.40;1.10;;;;;;;;;;10147388;28;20457;-65
2021/01/21 23:39:03;;;;;;;0.90;0.80;;;;;;;;;;10130762;28;20501;-66
2021/01/21 23:44:00;;;;;;;7.50;1.00;;;;;;;;;;10143645;28;20047;-65
2021/01/21 23:48:58;;;;;;;4.43;0.70;;;;;;;;;;10174514;28;20118;-65
2021/01/21 23:53:55;;;;;;;4.33;1.10;;;;;;;;;;10156367;28;20106;-65
2021/01/21 23:58:52;;;;;;;2.43;0.47;;;;;;;;;;10129504;28;20059;-65
